Time;durP1;ratioP1;P1;durP2;ratioP2;P2;SDS_P1;SDS_P2;PMS_P1;PMS_P2;Temp;Humidity;BMP_temperature;BMP_pressure;BME280_temperature;BME280_humidity;BME280_pressure;Samples;Min_cycle;Max_cycle;Signal;HPM_P1;HPM_P2
2023/08/11 00:00:36;;;;;;;3.47;0.70;;;;;;;18.14;57.53;100822.25;10504315;28;20060;-72
2023/08/11 00:05:38;;;;;;;4.28;1.10;;;;;;;18.11;57.66;100824.56;10503690;28;20063;-74
2023/08/11 00:10:40;;;;;;;9.70;1.63;;;;;;;17.96;57.81;100825.66;10505429;28;20356;-73
2023/08/11 00:15:42;;;;;;;4.13;0.82;;;;;;;17.90;57.91;100831.94;10501967;28;20068;-74
2023/08/11 00:20:45;;;;;;;6.28;0.77;;;;;;;17.78;58.18;100826.28;10505017;28;20090;-74
2023/08/11 00:25:46;;;;;;;2.88;1.02;;;;;;;17.75;58.29;100826.72;10504137;28;20048;-73
2023/08/11 00:30:50;;;;;;;7.53;2.30;;;;;;;17.73;58.59;100820.66;10504844;28;20044;-73
2023/08/11 00:35:51;;;;;;;4.88;1.00;;;;;;;17.71;58.66;100830.06;10513281;28;20290;-74
2023/08/11 00:40:53;;;;;;;2.45;0.80;;;;;;;17.60;58.82;100837.81;10509494;28;20051;-73
2023/08/11 00:45:55;;;;;;;4.18;0.90;;;;;;;17.60;58.84;100839.72;10510177;28;20115;-74
2023/08/11 00:50:57;;;;;;;5.45;1.48;;;;;;;17.48;59.04;100831.34;10511061;28;20037;-74
2023/08/11 00:56:01;;;;;;;3.33;1.00;;;;;;;17.37;59.57;100838.22;10510834;28;20194;-74
2023/08/11 01:01:04;;;;;;;4.13;0.70;;;;;;;17.40;59.00;100850.59;10511708;28;20040;-73
2023/08/11 01:06:18;;;;;;;5.72;0.80;;;;;;;17.35;59.38;100836.78;10510605;28;20036;-71
2023/08/11 01:11:33;;;;;;;3.92;1.42;;;;;;;17.35;59.54;100829.44;10511104;28;20048;-74
2023/08/11 01:16:36;;;;;;;5.30;0.68;;;;;;;17.29;59.77;100834.91;10510850;28;20037;-75
2023/08/11 01:21:40;;;;;;;3.28;1.00;;;;;;;17.22;59.93;100830.31;10513847;28;20052;-74
2023/08/11 01:26:41;;;;;;;2.55;0.90;;;;;;;17.15;60.24;100821.28;10513281;28;20064;-74
2023/08/11 01:31:43;;;;;;;3.33;0.90;;;;;;;16.99;60.47;100832.56;10509429;28;20055;-73
2023/08/11 01:36:44;;;;;;;3.20;1.00;;;;;;;16.96;60.69;100836.53;10506610;28;20059;-74
2023/08/11 01:41:52;;;;;;;4.70;0.90;;;;;;;16.94;60.77;100830.47;10507935;28;20119;-73
2023/08/11 01:46:58;;;;;;;2.20;0.85;;;;;;;16.89;60.79;100835.69;10507504;28;20052;-74
2023/08/11 01:51:59;;;;;;;3.53;0.80;;;;;;;16.81;60.75;100831.28;10508871;28;20405;-74
2023/08/11 01:57:01;;;;;;;2.83;0.95;;;;;;;16.81;61.05;100828.56;10507095;28;20047;-73
2023/08/11 02:02:02;;;;;;;3.90;0.80;;;;;;;16.82;60.96;100819.38;10506311;28;20048;-73
2023/08/11 02:07:04;;;;;;;2.15;0.70;;;;;;;16.82;61.00;100811.25;10508592;28;20045;-73
2023/08/11 02:12:07;;;;;;;4.28;0.90;;;;;;;16.76;61.45;100814.72;10507663;28;20056;-74
2023/08/11 02:17:08;;;;;;;4.45;1.23;;;;;;;16.55;61.84;100818.44;10509809;28;20046;-73
2023/08/11 02:22:10;;;;;;;1.95;0.80;;;;;;;16.51;61.74;100821.75;10511635;28;20078;-72
2023/08/11 02:27:13;;;;;;;3.75;0.82;;;;;;;16.51;61.87;100819.03;10513731;28;20056;-73
2023/08/11 02:32:14;;;;;;;5.13;0.93;;;;;;;16.51;61.90;100817.19;10509032;28;20129;-74
2023/08/11 02:37:15;;;;;;;8.75;1.00;;;;;;;16.51;62.20;100808.19;10507987;28;20048;-73
2023/08/11 02:42:18;;;;;;;1.10;0.68;;;;;;;16.36;62.15;100813.78;10506048;28;20044;-73
2023/08/11 02:47:20;;;;;;;2.08;0.70;;;;;;;16.16;62.77;100813.69;10507519;28;20048;-74
2023/08/11 02:52:21;;;;;;;1.77;0.65;;;;;;;16.06;63.12;100817.59;10507160;28;20058;-72
2023/08/11 02:57:23;;;;;;;5.97;0.85;;;;;;;16.19;62.91;100815.97;10502825;28;20171;-74
2023/08/11 03:02:24;;;;;;;4.03;0.93;;;;;;;16.24;62.55;100816.22;10507179;28;20634;-73
2023/08/11 03:07:25;;;;;;;2.33;0.70;;;;;;;16.27;62.32;100807.66;10504288;28;20041;-71
2023/08/11 03:12:30;;;;;;;4.75;1.10;;;;;;;16.30;62.43;100811.88;10505016;28;20064;-74
2023/08/11 03:17:32;;;;;;;4.20;1.08;;;;;;;16.33;62.45;100817.75;10502655;28;20215;-74
2023/08/11 03:22:34;;;;;;;2.58;0.95;;;;;;;16.34;62.36;100813.13;10506850;28;20056;-73
2023/08/11 03:27:35;;;;;;;2.67;0.80;;;;;;;16.29;62.76;100810.19;10504782;28;20051;-73
2023/08/11 03:32:40;;;;;;;4.82;0.80;;;;;;;16.16;63.02;100824.53;10506152;28;20433;-72
2023/08/11 03:37:42;;;;;;;3.53;0.68;;;;;;;16.06;63.08;100812.16;10505393;28;20039;-72
2023/08/11 03:42:43;;;;;;;4.50;0.88;;;;;;;16.11;62.96;100816.16;10505615;28;20044;-73
2023/08/11 03:47:45;;;;;;;7.15;0.70;;;;;;;16.11;63.01;100817.00;10505363;28;20054;-73
2023/08/11 03:52:47;;;;;;;2.00;0.90;;;;;;;16.10;63.04;100823.47;10504528;28;20040;-73
2023/08/11 03:57:49;;;;;;;2.30;1.02;;;;;;;16.04;63.37;100822.38;10503156;28;20363;-72
2023/08/11 04:02:50;;;;;;;6.93;0.90;;;;;;;16.01;63.23;100821.94;10501985;28;20116;-73
2023/08/11 04:07:53;;;;;;;2.20;1.08;;;;;;;16.03;63.04;100823.44;10515262;28;20269;-73
2023/08/11 04:12:54;;;;;;;3.92;0.80;;;;;;;16.08;63.05;100828.25;10515029;28;20040;-71
2023/08/11 04:17:56;;;;;;;2.85;0.93;;;;;;;16.13;63.13;100827.63;10519046;28;20076;-70
2023/08/11 04:22:57;;;;;;;2.90;0.73;;;;;;;16.11;63.05;100827.00;10516556;28;20116;-73
2023/08/11 04:28:00;;;;;;;3.95;1.42;;;;;;;16.12;63.11;100829.53;10523960;28;20333;-72
2023/08/11 04:33:02;;;;;;;5.80;1.02;;;;;;;16.14;63.25;100835.59;10517853;28;20067;-71
2023/08/11 04:38:04;;;;;;;5.85;1.42;;;;;;;16.20;63.45;100829.34;10516059;28;20064;-73
2023/08/11 04:43:05;;;;;;;7.03;1.02;;;;;;;16.25;63.17;100828.72;10516870;28;20044;-73
2023/08/11 04:48:07;;;;;;;5.70;1.13;;;;;;;16.22;63.21;100831.88;10516215;28;20293;-71
2023/08/11 04:53:08;;;;;;;5.15;1.02;;;;;;;16.19;63.41;100829.53;10514337;28;20056;-74
2023/08/11 04:58:10;;;;;;;4.13;1.42;;;;;;;16.29;63.29;100829.19;10511663;28;20103;-73
2023/08/11 05:03:11;;;;;;;2.88;1.02;;;;;;;16.24;63.47;100830.63;10516451;28;20111;-72
2023/08/11 05:08:13;;;;;;;4.47;1.17;;;;;;;16.30;63.97;100836.28;10514088;28;20050;-75
2023/08/11 05:13:14;;;;;;;3.65;1.27;;;;;;;16.44;63.73;100835.31;10514564;28;20059;-73
2023/08/11 05:18:16;;;;;;;2.60;1.17;;;;;;;16.59;63.68;100852.28;10517496;28;20068;-74
2023/08/11 05:23:18;;;;;;;5.30;1.38;;;;;;;16.76;63.52;100847.31;10511581;28;20060;-72
2023/08/11 05:28:23;;;;;;;3.45;1.13;;;;;;;16.95;63.33;100851.16;10509368;28;20060;-72
2023/08/11 05:33:27;;;;;;;1.77;0.98;;;;;;;17.12;63.22;100848.03;10509541;28;20223;-72
2023/08/11 05:38:28;;;;;;;4.47;1.58;;;;;;;17.22;62.92;100856.63;10509212;28;20565;-72
2023/08/11 05:43:29;;;;;;;4.32;1.40;;;;;;;17.25;63.37;100861.66;10509660;28;20072;-72
2023/08/11 05:48:31;;;;;;;4.78;1.30;;;;;;;17.43;63.36;100864.56;10508699;28;20048;-72
2023/08/11 05:53:32;;;;;;;2.40;1.10;;;;;;;17.60;63.11;100858.75;10509894;28;20055;-72
2023/08/11 05:58:34;;;;;;;3.05;1.17;;;;;;;17.77;62.66;100864.56;10507314;28;20037;-73
2023/08/11 06:03:35;;;;;;;4.82;1.48;;;;;;;17.83;62.85;100859.16;10508792;28;20108;-73
2023/08/11 06:08:37;;;;;;;5.07;1.23;;;;;;;18.01;62.74;100865.84;10507990;28;20126;-73
2023/08/11 06:13:38;;;;;;;6.97;1.73;;;;;;;18.18;62.80;100849.88;10513701;28;20354;-72
2023/08/11 06:18:39;;;;;;;6.93;2.15;;;;;;;18.32;62.59;100851.50;10505529;28;20340;-74
2023/08/11 06:23:41;;;;;;;5.28;1.10;;;;;;;18.51;62.30;100848.94;10508317;28;20119;-73
2023/08/11 06:28:42;;;;;;;7.85;1.00;;;;;;;18.63;62.10;100849.91;10507775;28;20111;-72
2023/08/11 06:33:44;;;;;;;7.15;1.60;;;;;;;18.75;62.15;100848.16;10506119;28;20087;-74
2023/08/11 06:38:46;;;;;;;8.57;1.92;;;;;;;18.92;61.79;100850.44;10506413;28;20064;-75
2023/08/11 06:43:47;;;;;;;4.38;1.10;;;;;;;19.11;61.43;100852.16;10506694;28;20056;-73
2023/08/11 06:48:49;;;;;;;1.20;0.77;;;;;;;19.13;61.35;100857.41;10505637;28;20108;-72
2023/08/11 06:53:50;;;;;;;3.08;0.98;;;;;;;19.22;61.10;100851.47;10504550;28;20068;-75
2023/08/11 06:58:52;;;;;;;3.28;0.98;;;;;;;19.45;60.69;100851.91;10504453;28;20075;-74
2023/08/11 07:03:53;;;;;;;4.05;1.15;;;;;;;19.52;60.56;100855.44;10506435;28;20044;-72
2023/08/11 07:08:55;;;;;;;3.53;0.95;;;;;;;19.76;59.96;100867.41;10511719;28;20067;-74
2023/08/11 07:13:57;;;;;;;4.13;1.15;;;;;;;20.03;59.10;100875.34;10505531;28;20055;-74
2023/08/11 07:18:58;;;;;;;1.77;0.90;;;;;;;20.13;58.65;100870.22;10498543;28;20043;-73
2023/08/11 07:23:59;;;;;;;1.98;1.00;;;;;;;20.19;58.48;100874.75;10505532;28;20408;-72
2023/08/11 07:29:01;;;;;;;3.65;0.90;;;;;;;20.43;57.89;100864.81;10505436;28;20119;-76
2023/08/11 07:34:03;;;;;;;4.32;0.80;;;;;;;20.78;57.47;100866.94;10504109;28;20057;-73
2023/08/11 07:39:08;;;;;;;2.97;1.00;;;;;;;21.04;56.70;100868.44;10504878;28;20349;-75
2023/08/11 07:44:23;;;;;;;2.67;1.08;;;;;;;21.28;56.29;100872.06;10504884;28;20040;-74
2023/08/11 07:49:25;;;;;;;2.58;1.33;;;;;;;21.51;56.19;100871.31;10510659;28;20040;-74
2023/08/11 07:54:26;;;;;;;2.03;0.98;;;;;;;21.73;55.56;100868.84;10504158;28;20044;-74
2023/08/11 07:59:28;;;;;;;2.13;1.10;;;;;;;21.86;55.00;100873.25;10503321;28;20124;-73
2023/08/11 08:04:30;;;;;;;3.13;0.88;;;;;;;22.06;54.27;100872.03;10503856;28;20082;-74
2023/08/11 08:09:33;;;;;;;2.42;1.33;;;;;;;22.17;54.03;100871.19;10512336;28;20467;-74
2023/08/11 08:14:35;;;;;;;2.30;1.20;;;;;;;22.43;53.93;100856.16;10508035;28;20383;-73
2023/08/11 08:19:36;;;;;;;2.40;1.48;;;;;;;22.63;53.80;100866.72;10503227;28;20104;-74
2023/08/11 08:24:38;;;;;;;4.30;1.25;;;;;;;22.76;53.45;100863.69;10504275;28;20091;-74
2023/08/11 08:29:39;;;;;;;1.70;1.00;;;;;;;23.05;53.00;100858.22;10501168;28;20052;-74
2023/08/11 08:34:43;;;;;;;2.03;0.80;;;;;;;23.27;52.20;100865.75;10504506;28;20076;-74
2023/08/11 08:39:44;;;;;;;1.45;0.73;;;;;;;23.41;51.62;100860.75;10504114;28;20062;-73
2023/08/11 08:44:48;;;;;;;2.17;0.90;;;;;;;23.51;51.01;100858.19;10511090;28;20043;-74
2023/08/11 08:49:51;;;;;;;3.08;0.80;;;;;;;23.76;50.72;100860.50;10499370;28;20248;-73
2023/08/11 08:54:53;;;;;;;2.05;0.85;;;;;;;23.99;50.43;100859.47;10509912;28;20047;-75
2023/08/11 08:59:56;;;;;;;5.85;0.82;;;;;;;24.20;50.08;100851.53;10510886;28;20409;-75
2023/08/11 09:04:57;;;;;;;3.85;0.77;;;;;;;24.39;49.16;100858.38;10509846;28;20151;-74
2023/08/11 09:10:01;;;;;;;1.77;0.60;;;;;;;24.66;48.69;100857.63;10509746;28;20052;-75
2023/08/11 09:15:09;;;;;;;4.75;0.68;;;;;;;24.92;47.58;100844.97;10510305;28;20131;-73
2023/08/11 09:20:12;;;;;;;1.30;0.60;;;;;;;25.22;46.97;100846.41;10508341;28;20349;-73
2023/08/11 09:25:14;;;;;;;2.00;0.70;;;;;;;25.29;45.58;100834.06;10508557;28;20052;-75
2023/08/11 09:30:16;;;;;;;3.40;0.82;;;;;;;25.59;44.70;100831.81;10506223;28;20366;-73
2023/08/11 09:35:23;;;;;;;2.85;0.80;;;;;;;25.85;44.12;100828.16;10507953;28;20048;-76
2023/08/11 09:40:26;;;;;;;1.73;0.80;;;;;;;26.18;43.53;100823.38;10506293;28;20056;-75
2023/08/11 09:45:30;;;;;;;4.05;0.70;;;;;;;26.37;42.68;100829.25;10515485;28;20052;-75
2023/08/11 09:50:35;;;;;;;2.05;0.55;;;;;;;26.43;41.79;100833.69;10508193;28;20064;-75
2023/08/11 09:55:39;;;;;;;3.55;0.70;;;;;;;26.55;41.65;100827.94;10507918;28;20056;-73
2023/08/11 10:00:43;;;;;;;1.45;0.77;;;;;;;26.78;40.64;100828.56;10507119;28;20293;-73
2023/08/11 10:05:45;;;;;;;3.38;0.63;;;;;;;27.04;40.30;100826.69;10506487;28;20044;-74
2023/08/11 10:10:47;;;;;;;1.77;1.25;;;;;;;27.15;39.55;100816.47;10506679;28;20107;-75
2023/08/11 10:15:50;;;;;;;2.85;0.70;;;;;;;27.46;39.36;100822.84;10504720;28;20036;-74
2023/08/11 10:20:53;;;;;;;2.08;0.93;;;;;;;27.76;38.97;100816.44;10507887;28;20079;-75
2023/08/11 10:25:55;;;;;;;6.78;1.08;;;;;;;28.00;38.45;100815.84;10512476;28;20112;-74
2023/08/11 10:30:58;;;;;;;2.53;0.50;;;;;;;28.11;37.88;100827.72;10507076;28;20044;-75
2023/08/11 10:36:00;;;;;;;1.40;0.57;;;;;;;28.32;37.76;100820.16;10506331;28;20078;-73
2023/08/11 10:41:08;;;;;;;1.30;0.52;;;;;;;28.59;37.45;100815.06;10502125;28;20103;-75
2023/08/11 10:46:21;;;;;;;3.78;0.75;;;;;;;28.81;36.67;100811.91;10503798;28;20051;-74
2023/08/11 10:51:27;;;;;;;2.20;0.90;;;;;;;29.03;35.97;100814.22;10504144;28;20056;-75
2023/08/11 10:56:31;;;;;;;;;;;;;;;29.38;36.34;100808.69;10504027;28;20087;-73
2023/08/11 11:01:37;;;;;;;2.25;0.50;;;;;;;29.72;35.65;100802.28;10506281;28;19934;-74
2023/08/11 11:06:39;;;;;;;1.77;0.63;;;;;;;30.05;36.02;100803.28;10504195;28;20578;-76
2023/08/11 11:11:43;;;;;;;2.67;0.60;;;;;;;29.87;35.39;100796.56;10505514;28;20066;-75
2023/08/11 11:16:45;;;;;;;2.30;0.63;;;;;;;29.92;34.70;100798.44;10502262;28;20072;-75
2023/08/11 11:21:47;;;;;;;1.15;0.50;;;;;;;30.05;34.87;100794.97;10504209;28;20110;-75
2023/08/11 11:26:49;;;;;;;4.95;1.42;;;;;;;30.07;34.36;100792.72;10499145;28;20116;-77
2023/08/11 11:31:51;;;;;;;3.40;0.55;;;;;;;30.59;35.02;100773.47;10510146;28;20320;-75
2023/08/11 11:36:52;;;;;;;1.30;0.50;;;;;;;30.92;33.59;100771.59;10505253;28;20268;-75
2023/08/11 11:41:53;;;;;;;5.03;0.75;;;;;;;30.84;33.40;100772.25;10504945;28;20104;-76
2023/08/11 11:46:55;;;;;;;1.30;0.60;;;;;;;30.92;33.52;100774.38;10504580;28;20159;-77
2023/08/11 11:52:03;;;;;;;1.58;0.80;;;;;;;30.75;32.98;100755.47;10501288;28;20099;-75
2023/08/11 11:57:05;;;;;;;2.05;1.35;;;;;;;31.14;32.66;100750.69;10503793;28;20249;-75
2023/08/11 12:02:10;;;;;;;4.10;0.83;;;;;;;31.37;32.87;100744.16;10503281;28;20056;-73
2023/08/11 12:07:29;;;;;;;1.85;0.80;;;;;;;32.08;32.24;100743.91;10502358;28;20041;-72
2023/08/11 12:12:30;;;;;;;2.25;0.65;;;;;;;32.09;32.21;100742.78;10502119;28;20044;-73
2023/08/11 12:17:33;;;;;;;1.05;0.50;;;;;;;32.67;31.65;100743.97;10504812;28;20090;-73
2023/08/11 12:22:35;;;;;;;1.77;0.50;;;;;;;32.89;30.43;100748.72;10502750;28;20328;-73
2023/08/11 12:27:37;;;;;;;2.05;0.68;;;;;;;32.67;30.29;100755.09;10505147;28;20044;-74
2023/08/11 12:32:38;;;;;;;0.63;0.40;;;;;;;32.90;30.07;100750.38;10506957;28;20040;-73
2023/08/11 12:37:40;;;;;;;2.95;0.65;;;;;;;33.26;30.30;100741.13;10509823;28;20059;-74
2023/08/11 12:42:41;;;;;;;0.60;0.50;;;;;;;32.95;29.55;100746.63;10521701;28;20048;-74
2023/08/11 12:47:42;;;;;;;2.05;0.50;;;;;;;33.02;29.73;100740.59;10511562;28;20059;-73
2023/08/11 12:52:44;;;;;;;1.00;0.45;;;;;;;33.00;29.39;100747.31;10508765;28;20563;-73
2023/08/11 12:57:46;;;;;;;1.00;0.50;;;;;;;33.27;29.01;100745.53;10502341;28;20424;-74
2023/08/11 13:02:47;;;;;;;0.70;0.40;;;;;;;33.36;29.15;100743.63;10503653;28;20321;-74
2023/08/11 13:07:49;;;;;;;0.77;0.40;;;;;;;33.42;28.73;100741.53;10510471;28;20050;-73
2023/08/11 13:12:50;;;;;;;1.88;0.50;;;;;;;33.94;27.71;100730.56;10507587;28;20072;-75
2023/08/11 13:17:52;;;;;;;1.50;0.50;;;;;;;34.46;27.40;100732.66;10507059;28;20051;-73
2023/08/11 13:22:53;;;;;;;2.05;0.40;;;;;;;34.14;28.00;100728.31;10510064;28;20097;-74
2023/08/11 13:27:55;;;;;;;0.57;0.30;;;;;;;34.37;27.56;100718.66;10508024;28;20096;-74
2023/08/11 13:32:59;;;;;;;2.00;0.30;;;;;;;34.63;26.97;100708.66;10508695;28;20052;-74
2023/08/11 13:38:01;;;;;;;1.02;0.47;;;;;;;34.69;26.54;100710.16;10508386;28;20048;-73
2023/08/11 13:43:04;;;;;;;1.77;0.32;;;;;;;35.36;26.21;100705.88;10506990;28;20067;-74
2023/08/11 13:48:05;;;;;;;1.65;0.47;;;;;;;35.37;26.09;100693.56;10508562;28;20051;-75
2023/08/11 13:53:07;;;;;;;1.00;0.30;;;;;;;35.60;25.93;100690.47;10507337;28;20341;-74
2023/08/11 13:58:08;;;;;;;4.20;0.40;;;;;;;36.13;25.63;100692.63;10503204;28;20094;-75
2023/08/11 14:03:09;;;;;;;1.77;0.30;;;;;;;36.43;25.16;100686.97;10504639;28;20055;-74
2023/08/11 14:08:12;;;;;;;0.82;0.30;;;;;;;36.35;25.13;100673.03;10516592;28;20078;-76
2023/08/11 14:13:14;;;;;;;2.05;0.32;;;;;;;37.82;23.82;100670.53;10505166;28;20257;-75
2023/08/11 14:18:16;;;;;;;1.67;0.40;;;;;;;38.63;23.21;100662.13;10506678;28;20071;-74
2023/08/11 14:23:17;;;;;;;1.77;0.40;;;;;;;39.71;21.71;100662.03;10505390;28;20108;-72
2023/08/11 14:28:19;;;;;;;0.80;0.40;;;;;;;39.42;21.43;100657.75;10506698;28;20562;-73
2023/08/11 14:33:21;;;;;;;1.27;0.40;;;;;;;39.37;21.32;100625.06;10507236;28;20173;-72
2023/08/11 14:38:23;;;;;;;1.95;0.50;;;;;;;39.10;21.72;100632.41;10507111;28;20058;-72
2023/08/11 14:43:24;;;;;;;1.38;0.40;;;;;;;38.27;22.90;100643.41;10506358;28;20044;-71
2023/08/11 14:48:25;;;;;;;1.40;0.50;;;;;;;38.00;22.72;100642.19;10509183;28;20071;-72
2023/08/11 14:53:29;;;;;;;0.50;0.30;;;;;;;37.60;23.13;100635.38;10506941;28;20040;-72
2023/08/11 14:58:30;;;;;;;0.75;0.30;;;;;;;37.77;23.15;100625.88;10502548;28;20528;-73
2023/08/11 15:03:32;;;;;;;0.40;0.30;;;;;;;37.80;22.78;100624.34;10506504;28;20060;-74
2023/08/11 15:08:34;;;;;;;0.93;0.40;;;;;;;37.78;22.67;100629.47;10505118;28;20282;-73
2023/08/11 15:13:35;;;;;;;1.27;0.30;;;;;;;36.72;23.53;100623.59;10504811;28;20044;-73
2023/08/11 15:18:39;;;;;;;0.68;0.47;;;;;;;36.48;24.12;100622.34;10502491;28;20094;-73
2023/08/11 15:23:41;;;;;;;0.83;0.30;;;;;;;36.30;24.42;100621.69;10515863;28;20044;-74
2023/08/11 15:28:42;;;;;;;2.28;0.30;;;;;;;36.24;24.77;100614.69;10504209;28;20111;-74
2023/08/11 15:33:43;;;;;;;0.40;0.20;;;;;;;36.14;24.48;100613.09;10502323;28;20079;-73
2023/08/11 15:38:45;;;;;;;0.40;0.20;;;;;;;35.86;24.94;100612.84;10500477;28;20103;-73
2023/08/11 15:49:03;;;;;;;1.00;0.22;;;;;;;35.06;25.51;100602.41;10318461;22;20094;-70
2023/08/11 16:10:53;;;;;;;0.20;0.20;;;;;;;34.63;26.37;100594.16;10318350;28;20056;-73
2023/08/11 16:15:55;;;;;;;0.50;0.30;;;;;;;34.60;26.51;100592.00;10378513;28;20053;-73
2023/08/11 16:20:57;;;;;;;1.13;0.30;;;;;;;35.10;26.06;100582.97;10375382;28;20053;-70
2023/08/11 16:25:59;;;;;;;0.40;0.30;;;;;;;35.24;26.19;100589.19;10377171;28;20121;-70
2023/08/11 16:31:01;;;;;;;0.90;0.38;;;;;;;35.39;26.45;100587.78;10356250;28;20098;-69
2023/08/11 16:36:02;;;;;;;0.70;0.30;;;;;;;35.46;25.84;100579.66;10376729;28;20046;-70
2023/08/11 16:41:04;;;;;;;0.47;0.30;;;;;;;35.78;25.91;100570.91;10376250;28;20042;-69
2023/08/11 16:46:08;;;;;;;1.08;0.50;;;;;;;36.11;25.60;100568.97;10376286;28;20319;-71
2023/08/11 16:51:10;;;;;;;3.10;1.10;;;;;;;36.24;25.31;100563.44;10374438;28;20334;-71
2023/08/11 16:56:11;;;;;;;4.75;0.60;;;;;;;36.69;24.82;100557.88;10374800;28;20064;-69
2023/08/11 17:01:13;;;;;;;0.68;0.40;;;;;;;36.83;25.04;100548.28;10375848;28;20354;-70
2023/08/11 17:06:18;;;;;;;1.00;0.50;;;;;;;37.26;24.64;100541.31;10371379;28;20167;-68
2023/08/11 17:11:20;;;;;;;1.85;0.45;;;;;;;37.37;24.59;100547.25;10376496;28;20092;-72
2023/08/11 17:16:22;;;;;;;1.13;0.50;;;;;;;37.29;24.12;100546.22;10383545;28;20061;-72
2023/08/11 17:21:24;;;;;;;3.70;0.60;;;;;;;37.30;25.03;100550.66;10383811;28;20042;-71
2023/08/11 17:26:25;;;;;;;1.00;0.70;;;;;;;37.22;24.98;100546.78;10387265;28;20073;-70
2023/08/11 17:31:27;;;;;;;2.13;0.80;;;;;;;37.10;24.75;100546.78;10375445;28;20050;-72
2023/08/11 17:36:28;;;;;;;2.90;0.70;;;;;;;36.29;25.58;100544.44;10381789;28;20053;-73
2023/08/11 17:41:30;;;;;;;1.20;0.57;;;;;;;35.37;26.44;100552.91;10381939;28;20073;-70
2023/08/11 17:46:31;;;;;;;0.60;0.50;;;;;;;35.37;26.60;100550.97;10382279;28;20109;-72
2023/08/11 17:51:33;;;;;;;2.40;0.60;;;;;;;35.71;26.71;100549.91;10383955;28;20111;-72
2023/08/11 17:56:38;;;;;;;1.40;0.63;;;;;;;35.46;26.75;100537.72;10388754;28;20395;-71
2023/08/11 18:01:39;;;;;;;1.77;0.75;;;;;;;34.98;27.85;100540.97;10400609;28;20073;-72
2023/08/11 18:06:41;;;;;;;3.83;0.82;;;;;;;34.37;28.77;100544.78;10409143;28;20059;-71
2023/08/11 18:11:42;;;;;;;1.30;0.80;;;;;;;33.81;29.77;100547.44;10410197;28;20057;-72
2023/08/11 18:16:44;;;;;;;3.42;1.13;;;;;;;33.27;30.61;100553.25;10407474;28;20050;-69
2023/08/11 18:21:45;;;;;;;3.72;0.70;;;;;;;32.69;31.28;100546.78;10407975;28;20045;-69
2023/08/11 18:26:46;;;;;;;6.20;1.42;;;;;;;32.19;32.05;100547.00;10391269;28;20041;-69
2023/08/11 18:31:48;;;;;;;2.70;0.80;;;;;;;31.74;32.54;100535.81;10408644;28;20053;-70
2023/08/11 18:36:49;;;;;;;5.22;1.00;;;;;;;31.30;33.32;100537.31;10410403;28;20045;-72
2023/08/11 18:41:51;;;;;;;2.10;1.17;;;;;;;30.95;34.49;100548.06;10408456;28;20056;-69
2023/08/11 18:46:52;;;;;;;3.47;1.50;;;;;;;30.59;34.92;100535.66;10405852;28;20045;-69
2023/08/11 18:51:54;;;;;;;5.07;0.98;;;;;;;30.27;35.86;100541.19;10404727;28;20046;-72
2023/08/11 18:56:55;;;;;;;2.13;0.80;;;;;;;29.96;38.00;100547.25;10409562;28;20053;-71
2023/08/11 19:01:57;;;;;;;3.50;1.15;;;;;;;29.67;38.90;100546.25;10390338;28;20049;-71
2023/08/11 19:06:58;;;;;;;2.15;1.17;;;;;;;29.42;39.61;100549.38;10389453;28;20042;-72
2023/08/11 19:12:00;;;;;;;2.20;0.90;;;;;;;29.17;40.38;100554.13;10390966;28;20042;-72
2023/08/11 19:17:01;;;;;;;1.90;1.17;;;;;;;28.91;40.98;100561.91;10408008;28;20365;-68
2023/08/11 19:22:03;;;;;;;2.40;0.90;;;;;;;28.57;41.72;100559.19;10406068;28;20053;-71
2023/08/11 19:27:05;;;;;;;2.30;0.90;;;;;;;28.34;42.97;100563.50;10406989;28;20242;-68
2023/08/11 19:32:07;;;;;;;2.92;1.00;;;;;;;28.15;43.34;100567.00;10413049;28;20345;-69
2023/08/11 19:37:09;;;;;;;4.60;1.27;;;;;;;27.98;43.92;100569.31;10402571;28;20046;-72
2023/08/11 19:42:11;;;;;;;5.13;1.02;;;;;;;27.85;44.13;100562.50;10369588;28;20054;-75
2023/08/11 19:47:13;;;;;;;3.40;1.30;;;;;;;27.68;44.93;100549.06;10378055;28;20234;-76
2023/08/11 19:52:18;;;;;;;4.40;1.45;;;;;;;27.49;45.55;100554.44;10379385;28;20042;-77
2023/08/11 19:57:20;;;;;;;4.00;1.00;;;;;;;27.28;46.16;100554.50;10376677;28;20045;-75
2023/08/11 20:02:22;;;;;;;6.38;1.20;;;;;;;27.14;46.63;100553.44;10376315;28;20071;-76
2023/08/11 20:07:23;;;;;;;7.88;1.40;;;;;;;26.95;47.22;100547.69;10370437;28;20068;-74
2023/08/11 20:12:24;;;;;;;4.82;1.50;;;;;;;26.81;47.63;100543.88;10372796;28;20119;-71
2023/08/11 20:17:26;;;;;;;3.95;1.60;;;;;;;26.64;48.46;100545.03;10378425;28;20117;-70
2023/08/11 20:22:27;;;;;;;6.20;1.52;;;;;;;26.49;48.46;100545.03;10374479;28;20065;-70
2023/08/11 20:27:29;;;;;;;2.65;1.30;;;;;;;26.33;48.67;100538.69;10377531;28;20307;-71
2023/08/11 20:32:30;;;;;;;3.42;1.40;;;;;;;26.13;49.27;100539.53;10378276;28;20053;-69
2023/08/11 20:37:32;;;;;;;3.28;1.75;;;;;;;26.03;49.94;100531.28;10378388;28;20121;-70
2023/08/11 20:42:34;;;;;;;6.60;2.38;;;;;;;25.97;49.71;100535.09;10389115;28;20050;-70
2023/08/11 20:47:36;;;;;;;5.80;2.08;;;;;;;25.86;50.48;100529.53;10407558;28;20053;-69
2023/08/11 20:52:37;;;;;;;4.22;2.17;;;;;;;25.77;50.92;100525.69;10413537;28;20049;-69
2023/08/11 20:57:39;;;;;;;4.57;1.83;;;;;;;25.66;51.21;100521.28;10418401;28;20041;-70
2023/08/11 21:02:40;;;;;;;5.47;3.35;;;;;;;25.56;51.60;100524.81;10411071;28;20065;-68
2023/08/11 21:07:42;;;;;;;6.90;3.10;;;;;;;25.44;52.57;100522.31;10411960;28;20079;-70
2023/08/11 21:12:43;;;;;;;7.03;3.92;;;;;;;25.32;52.83;100525.31;10414418;28;20441;-71
2023/08/11 21:17:45;;;;;;;5.65;3.05;;;;;;;25.26;52.97;100531.06;10407956;28;20045;-71
2023/08/11 21:22:46;;;;;;;4.88;3.33;;;;;;;25.16;53.36;100525.47;10415515;28;20057;-69
2023/08/11 21:27:48;;;;;;;6.60;3.25;;;;;;;25.08;53.33;100533.16;10410429;28;20052;-71
2023/08/11 21:32:51;;;;;;;7.53;3.80;;;;;;;24.96;54.25;100534.47;10397977;28;20517;-68
2023/08/11 21:37:52;;;;;;;8.30;3.30;;;;;;;24.90;54.04;100531.72;10386254;28;20046;-70
2023/08/11 21:42:54;;;;;;;6.05;2.55;;;;;;;24.80;54.61;100534.38;10385412;28;20045;-70
2023/08/11 21:47:56;;;;;;;5.97;2.25;;;;;;;24.63;54.91;100536.50;10385170;28;20053;-70
2023/08/11 21:52:57;;;;;;;4.35;1.80;;;;;;;24.47;55.22;100532.78;10386099;28;20114;-70
2023/08/11 21:58:13;;;;;;;7.83;2.20;;;;;;;24.37;55.24;100527.19;10385448;28;20114;-71
2023/08/11 22:03:16;;;;;;;2.88;1.98;;;;;;;24.28;55.58;100522.19;10386139;28;20462;-70
2023/08/11 22:08:18;;;;;;;4.63;2.13;;;;;;;24.23;55.70;100524.91;10383455;28;20107;-70
2023/08/11 22:13:21;;;;;;;4.20;2.03;;;;;;;24.13;55.61;100522.06;10384156;28;20274;-70
2023/08/11 22:18:23;;;;;;;6.70;2.00;;;;;;;23.88;55.96;100518.03;10384422;28;20061;-70
2023/08/11 22:23:24;;;;;;;5.55;2.38;;;;;;;23.83;56.40;100528.94;10382892;28;20070;-70
2023/08/11 22:28:26;;;;;;;3.78;2.15;;;;;;;23.69;56.57;100533.16;10382708;28;20050;-70
2023/08/11 22:33:27;;;;;;;3.47;2.38;;;;;;;23.58;56.55;100543.22;10381210;28;20110;-70
2023/08/11 22:38:29;;;;;;;5.40;2.25;;;;;;;23.57;56.95;100530.56;10368036;28;20093;-71
2023/08/11 22:43:30;;;;;;;8.80;2.65;;;;;;;23.53;56.91;100527.50;10380676;28;20077;-72
2023/08/11 22:48:32;;;;;;;6.00;2.20;;;;;;;23.44;57.20;100525.50;10384003;28;20357;-71
2023/08/11 22:53:33;;;;;;;5.53;2.13;;;;;;;23.19;57.92;100521.38;10383590;28;20122;-70
2023/08/11 22:58:35;;;;;;;6.25;2.25;;;;;;;23.19;58.09;100523.28;10384449;28;20053;-69
2023/08/11 23:03:36;;;;;;;6.13;2.72;;;;;;;23.10;58.18;100511.94;10382050;28;20088;-70
2023/08/11 23:08:38;;;;;;;3.58;2.65;;;;;;;23.04;58.34;100510.22;10380182;28;20046;-70
2023/08/11 23:13:39;;;;;;;4.45;2.08;;;;;;;22.97;58.44;100510.38;10383685;28;20262;-69
2023/08/11 23:18:40;;;;;;;5.93;2.05;;;;;;;22.85;58.82;100515.13;10376651;28;20074;-72
2023/08/11 23:23:42;;;;;;;7.88;2.85;;;;;;;22.78;59.08;100513.41;10380623;28;20113;-70
2023/08/11 23:28:43;;;;;;;8.60;2.65;;;;;;;22.76;59.11;100509.28;10383595;28;20468;-70